sensor_id;sensor_type;location;lat;lon;timestamp;P1;durP1;ratioP1;P2;durP2;ratioP2
291;SDS011;23311;48.776;9.162;2024-03-07T00:00:08;36.30;;;25.33;;
291;SDS011;23311;48.776;9.162;2024-03-07T00:02:42;38.27;;;23.83;;
291;SDS011;23311;48.776;9.162;2024-03-07T00:05:10;35.80;;;27.10;;
291;SDS011;23311;48.776;9.162;2024-03-07T00:07:39;36.43;;;27.03;;
291;SDS011;23311;48.776;9.162;2024-03-07T00:10:08;31.73;;;24.70;;
291;SDS011;23311;48.776;9.162;2024-03-07T00:12:38;37.50;;;24.60;;
291;SDS011;23311;48.776;9.162;2024-03-07T00:15:08;33.67;;;24.33;;
291;SDS011;23311;48.776;9.162;2024-03-07T00:17:37;31.33;;;24.57;;
291;SDS011;23311;48.776;9.162;2024-03-07T00:20:06;33.63;;;25.47;;
291;SDS011;23311;48.776;9.162;2024-03-07T00:22:42;33.57;;;24.90;;
291;SDS011;23311;48.776;9.162;2024-03-07T00:25:10;35.23;;;25.90;;
291;SDS011;23311;48.776;9.162;2024-03-07T00:27:41;31.57;;;23.53;;
291;SDS011;23311;48.776;9.162;2024-03-07T00:30:12;33.97;;;25.77;;
291;SDS011;23311;48.776;9.162;2024-03-07T00:32:45;34.23;;;26.73;;
291;SDS011;23311;48.776;9.162;2024-03-07T00:35:14;35.00;;;25.97;;
291;SDS011;23311;48.776;9.162;2024-03-07T00:37:43;32.87;;;24.53;;
291;SDS011;23311;48.776;9.162;2024-03-07T00:40:12;28.73;;;21.30;;
291;SDS011;23311;48.776;9.162;2024-03-07T00:42:42;37.67;;;23.80;;
291;SDS011;23311;48.776;9.162;2024-03-07T00:45:10;33.77;;;24.30;;
291;SDS011;23311;48.776;9.162;2024-03-07T00:47:38;35.63;;;24.70;;
291;SDS011;23311;48.776;9.162;2024-03-07T00:50:07;31.73;;;24.53;;
291;SDS011;23311;48.776;9.162;2024-03-07T00:52:36;30.07;;;24.57;;
291;SDS011;23311;48.776;9.162;2024-03-07T00:55:05;33.43;;;24.17;;
291;SDS011;23311;48.776;9.162;2024-03-07T00:57:35;37.93;;;27.07;;
291;SDS011;23311;48.776;9.162;2024-03-07T01:00:06;33.70;;;24.10;;
291;SDS011;23311;48.776;9.162;2024-03-07T01:02:41;34.30;;;26.47;;
291;SDS011;23311;48.776;9.162;2024-03-07T01:05:10;35.77;;;25.53;;
291;SDS011;23311;48.776;9.162;2024-03-07T01:07:41;37.70;;;26.40;;
291;SDS011;23311;48.776;9.162;2024-03-07T01:10:11;38.13;;;26.63;;
291;SDS011;23311;48.776;9.162;2024-03-07T01:12:40;30.80;;;24.17;;
291;SDS011;23311;48.776;9.162;2024-03-07T01:15:11;34.97;;;25.53;;
291;SDS011;23311;48.776;9.162;2024-03-07T01:17:41;35.50;;;25.80;;
291;SDS011;23311;48.776;9.162;2024-03-07T01:20:11;36.53;;;25.70;;
291;SDS011;23311;48.776;9.162;2024-03-07T01:22:39;39.13;;;26.20;;
291;SDS011;23311;48.776;9.162;2024-03-07T01:25:08;42.17;;;26.70;;
291;SDS011;23311;48.776;9.162;2024-03-07T01:27:36;34.60;;;25.57;;
291;SDS011;23311;48.776;9.162;2024-03-07T01:30:04;36.30;;;27.73;;
291;SDS011;23311;48.776;9.162;2024-03-07T01:32:36;34.90;;;26.17;;
291;SDS011;23311;48.776;9.162;2024-03-07T01:35:04;34.93;;;27.03;;
291;SDS011;23311;48.776;9.162;2024-03-07T01:37:35;39.97;;;27.97;;
291;SDS011;23311;48.776;9.162;2024-03-07T01:40:03;41.00;;;26.97;;
291;SDS011;23311;48.776;9.162;2024-03-07T01:42:32;37.70;;;28.93;;
291;SDS011;23311;48.776;9.162;2024-03-07T01:45:01;38.53;;;28.03;;
291;SDS011;23311;48.776;9.162;2024-03-07T01:47:29;42.50;;;28.80;;
291;SDS011;23311;48.776;9.162;2024-03-07T01:49:59;38.87;;;30.67;;
291;SDS011;23311;48.776;9.162;2024-03-07T01:52:28;44.90;;;30.60;;
291;SDS011;23311;48.776;9.162;2024-03-07T01:54:56;42.93;;;27.87;;
291;SDS011;23311;48.776;9.162;2024-03-07T01:57:25;45.33;;;31.47;;
291;SDS011;23311;48.776;9.162;2024-03-07T01:59:55;39.23;;;28.87;;
291;SDS011;23311;48.776;9.162;2024-03-07T02:02:24;42.13;;;30.13;;
291;SDS011;23311;48.776;9.162;2024-03-07T02:04:52;43.47;;;30.77;;
291;SDS011;23311;48.776;9.162;2024-03-07T02:07:22;43.13;;;30.83;;
291;SDS011;23311;48.776;9.162;2024-03-07T02:09:50;43.07;;;31.27;;
291;SDS011;23311;48.776;9.162;2024-03-07T02:12:27;44.23;;;30.33;;
291;SDS011;23311;48.776;9.162;2024-03-07T02:14:56;42.83;;;31.10;;
291;SDS011;23311;48.776;9.162;2024-03-07T02:17:24;41.77;;;32.27;;
291;SDS011;23311;48.776;9.162;2024-03-07T02:19:54;44.30;;;32.67;;
291;SDS011;23311;48.776;9.162;2024-03-07T02:22:23;46.07;;;31.37;;
291;SDS011;23311;48.776;9.162;2024-03-07T02:24:53;41.77;;;31.80;;
291;SDS011;23311;48.776;9.162;2024-03-07T02:27:21;45.20;;;32.83;;
291;SDS011;23311;48.776;9.162;2024-03-07T02:29:49;49.27;;;35.17;;
291;SDS011;23311;48.776;9.162;2024-03-07T02:32:18;45.67;;;33.53;;
291;SDS011;23311;48.776;9.162;2024-03-07T02:34:46;47.47;;;33.77;;
291;SDS011;23311;48.776;9.162;2024-03-07T02:37:14;46.63;;;33.57;;
291;SDS011;23311;48.776;9.162;2024-03-07T02:39:44;50.27;;;34.47;;
291;SDS011;23311;48.776;9.162;2024-03-07T02:42:12;44.37;;;33.37;;
291;SDS011;23311;48.776;9.162;2024-03-07T02:44:40;46.43;;;34.03;;
291;SDS011;23311;48.776;9.162;2024-03-07T02:47:09;45.90;;;33.23;;
291;SDS011;23311;48.776;9.162;2024-03-07T02:49:37;48.60;;;34.20;;
291;SDS011;23311;48.776;9.162;2024-03-07T02:52:05;44.00;;;33.83;;
291;SDS011;23311;48.776;9.162;2024-03-07T02:54:34;47.13;;;34.30;;
291;SDS011;23311;48.776;9.162;2024-03-07T02:57:04;48.20;;;35.30;;
291;SDS011;23311;48.776;9.162;2024-03-07T02:59:32;49.50;;;35.00;;
291;SDS011;23311;48.776;9.162;2024-03-07T03:02:00;41.90;;;32.80;;
291;SDS011;23311;48.776;9.162;2024-03-07T03:04:29;43.90;;;33.83;;
291;SDS011;23311;48.776;9.162;2024-03-07T03:06:57;50.33;;;33.50;;
291;SDS011;23311;48.776;9.162;2024-03-07T03:09:25;45.53;;;33.37;;
291;SDS011;23311;48.776;9.162;2024-03-07T03:11:54;47.40;;;33.73;;
291;SDS011;23311;48.776;9.162;2024-03-07T03:14:24;56.37;;;36.27;;
291;SDS011;23311;48.776;9.162;2024-03-07T03:16:52;46.93;;;35.47;;
291;SDS011;23311;48.776;9.162;2024-03-07T03:19:22;48.70;;;35.97;;
291;SDS011;23311;48.776;9.162;2024-03-07T03:21:53;52.03;;;36.77;;
291;SDS011;23311;48.776;9.162;2024-03-07T03:24:22;55.27;;;37.87;;
291;SDS011;23311;48.776;9.162;2024-03-07T03:26:50;51.50;;;37.23;;
291;SDS011;23311;48.776;9.162;2024-03-07T03:29:18;48.43;;;36.67;;
291;SDS011;23311;48.776;9.162;2024-03-07T03:31:48;50.80;;;37.00;;
291;SDS011;23311;48.776;9.162;2024-03-07T03:34:16;53.37;;;37.07;;
291;SDS011;23311;48.776;9.162;2024-03-07T03:36:44;52.47;;;37.67;;
291;SDS011;23311;48.776;9.162;2024-03-07T03:39:12;51.50;;;36.07;;
291;SDS011;23311;48.776;9.162;2024-03-07T03:41:42;54.53;;;37.00;;
291;SDS011;23311;48.776;9.162;2024-03-07T03:44:10;54.80;;;38.80;;
291;SDS011;23311;48.776;9.162;2024-03-07T03:46:39;61.83;;;39.67;;
291;SDS011;23311;48.776;9.162;2024-03-07T03:49:08;53.20;;;37.53;;
291;SDS011;23311;48.776;9.162;2024-03-07T03:51:36;60.90;;;40.87;;
291;SDS011;23311;48.776;9.162;2024-03-07T03:54:04;55.27;;;38.43;;
291;SDS011;23311;48.776;9.162;2024-03-07T03:56:32;56.40;;;38.13;;
291;SDS011;23311;48.776;9.162;2024-03-07T03:59:01;54.07;;;38.90;;
291;SDS011;23311;48.776;9.162;2024-03-07T04:01:29;50.60;;;38.43;;
291;SDS011;23311;48.776;9.162;2024-03-07T04:03:57;58.33;;;40.23;;
291;SDS011;23311;48.776;9.162;2024-03-07T04:06:27;55.10;;;38.93;;
291;SDS011;23311;48.776;9.162;2024-03-07T04:08:55;60.37;;;39.23;;
291;SDS011;23311;48.776;9.162;2024-03-07T04:11:23;52.07;;;36.63;;
291;SDS011;23311;48.776;9.162;2024-03-07T04:13:51;59.00;;;40.17;;
291;SDS011;23311;48.776;9.162;2024-03-07T04:16:20;49.37;;;37.37;;
291;SDS011;23311;48.776;9.162;2024-03-07T04:18:48;50.83;;;36.03;;
291;SDS011;23311;48.776;9.162;2024-03-07T04:21:16;59.03;;;40.43;;
291;SDS011;23311;48.776;9.162;2024-03-07T04:23:45;52.70;;;36.90;;
291;SDS011;23311;48.776;9.162;2024-03-07T04:26:14;51.37;;;36.20;;
291;SDS011;23311;48.776;9.162;2024-03-07T04:28:43;51.17;;;36.27;;
291;SDS011;23311;48.776;9.162;2024-03-07T04:31:11;53.10;;;36.50;;
291;SDS011;23311;48.776;9.162;2024-03-07T04:33:40;46.50;;;34.20;;
291;SDS011;23311;48.776;9.162;2024-03-07T04:36:08;52.20;;;36.23;;
291;SDS011;23311;48.776;9.162;2024-03-07T04:38:36;50.43;;;36.93;;
291;SDS011;23311;48.776;9.162;2024-03-07T04:41:05;52.93;;;37.63;;
291;SDS011;23311;48.776;9.162;2024-03-07T04:43:34;47.70;;;33.43;;
291;SDS011;23311;48.776;9.162;2024-03-07T04:46:02;51.23;;;36.93;;
291;SDS011;23311;48.776;9.162;2024-03-07T04:48:33;47.53;;;34.97;;
291;SDS011;23311;48.776;9.162;2024-03-07T04:51:01;50.17;;;34.90;;
291;SDS011;23311;48.776;9.162;2024-03-07T04:53:30;52.17;;;35.77;;
291;SDS011;23311;48.776;9.162;2024-03-07T04:55:59;48.23;;;36.17;;
291;SDS011;23311;48.776;9.162;2024-03-07T04:58:28;49.13;;;35.07;;
291;SDS011;23311;48.776;9.162;2024-03-07T05:00:56;51.10;;;36.17;;
291;SDS011;23311;48.776;9.162;2024-03-07T05:03:25;50.30;;;36.97;;
291;SDS011;23311;48.776;9.162;2024-03-07T05:05:54;53.17;;;34.60;;
291;SDS011;23311;48.776;9.162;2024-03-07T05:08:23;48.40;;;36.50;;
291;SDS011;23311;48.776;9.162;2024-03-07T05:10:53;49.20;;;36.27;;
291;SDS011;23311;48.776;9.162;2024-03-07T05:13:21;49.87;;;35.40;;
291;SDS011;23311;48.776;9.162;2024-03-07T05:15:51;48.33;;;36.33;;
291;SDS011;23311;48.776;9.162;2024-03-07T05:18:19;49.33;;;36.13;;
291;SDS011;23311;48.776;9.162;2024-03-07T05:20:48;50.40;;;36.30;;
291;SDS011;23311;48.776;9.162;2024-03-07T05:23:17;49.90;;;38.07;;
291;SDS011;23311;48.776;9.162;2024-03-07T05:25:45;55.77;;;37.70;;
291;SDS011;23311;48.776;9.162;2024-03-07T05:28:12;49.80;;;37.47;;
291;SDS011;23311;48.776;9.162;2024-03-07T05:30:40;52.90;;;37.10;;
291;SDS011;23311;48.776;9.162;2024-03-07T05:33:10;47.57;;;36.10;;
291;SDS011;23311;48.776;9.162;2024-03-07T05:35:38;54.20;;;36.60;;
291;SDS011;23311;48.776;9.162;2024-03-07T05:38:06;48.00;;;35.90;;
291;SDS011;23311;48.776;9.162;2024-03-07T05:40:35;54.37;;;38.47;;
291;SDS011;23311;48.776;9.162;2024-03-07T05:43:03;54.37;;;36.00;;
291;SDS011;23311;48.776;9.162;2024-03-07T05:45:31;53.30;;;36.87;;
291;SDS011;23311;48.776;9.162;2024-03-07T05:48:12;51.43;;;37.30;;
291;SDS011;23311;48.776;9.162;2024-03-07T05:50:44;55.83;;;37.27;;
291;SDS011;23311;48.776;9.162;2024-03-07T05:53:13;54.80;;;35.40;;
291;SDS011;23311;48.776;9.162;2024-03-07T05:55:42;52.23;;;35.43;;
291;SDS011;23311;48.776;9.162;2024-03-07T05:58:10;51.90;;;37.50;;
291;SDS011;23311;48.776;9.162;2024-03-07T06:00:38;51.43;;;34.97;;
291;SDS011;23311;48.776;9.162;2024-03-07T06:03:06;51.27;;;36.87;;
291;SDS011;23311;48.776;9.162;2024-03-07T06:05:37;56.37;;;37.07;;
291;SDS011;23311;48.776;9.162;2024-03-07T06:08:09;51.73;;;35.40;;
291;SDS011;23311;48.776;9.162;2024-03-07T06:10:38;53.80;;;39.00;;
291;SDS011;23311;48.776;9.162;2024-03-07T06:13:08;55.23;;;36.90;;
291;SDS011;23311;48.776;9.162;2024-03-07T06:15:37;59.50;;;39.83;;
291;SDS011;23311;48.776;9.162;2024-03-07T06:18:06;48.27;;;35.23;;
291;SDS011;23311;48.776;9.162;2024-03-07T06:20:39;53.80;;;39.00;;
291;SDS011;23311;48.776;9.162;2024-03-07T06:23:08;54.50;;;37.27;;
291;SDS011;23311;48.776;9.162;2024-03-07T06:25:38;49.93;;;35.67;;
291;SDS011;23311;48.776;9.162;2024-03-07T06:28:14;47.17;;;34.07;;
291;SDS011;23311;48.776;9.162;2024-03-07T06:30:43;47.67;;;33.60;;
291;SDS011;23311;48.776;9.162;2024-03-07T06:33:13;49.27;;;35.97;;
291;SDS011;23311;48.776;9.162;2024-03-07T06:35:46;50.43;;;34.60;;
291;SDS011;23311;48.776;9.162;2024-03-07T06:38:15;43.50;;;32.70;;
291;SDS011;23311;48.776;9.162;2024-03-07T06:40:43;45.43;;;31.60;;
291;SDS011;23311;48.776;9.162;2024-03-07T06:43:11;44.03;;;32.43;;
291;SDS011;23311;48.776;9.162;2024-03-07T06:45:40;41.90;;;31.60;;
291;SDS011;23311;48.776;9.162;2024-03-07T06:48:09;42.60;;;32.27;;
291;SDS011;23311;48.776;9.162;2024-03-07T06:50:37;41.50;;;30.60;;
291;SDS011;23311;48.776;9.162;2024-03-07T06:53:07;43.80;;;30.73;;
291;SDS011;23311;48.776;9.162;2024-03-07T06:55:36;47.60;;;33.00;;
291;SDS011;23311;48.776;9.162;2024-03-07T06:58:05;38.27;;;29.63;;
291;SDS011;23311;48.776;9.162;2024-03-07T07:00:34;44.50;;;32.20;;
291;SDS011;23311;48.776;9.162;2024-03-07T07:03:06;40.97;;;29.70;;
291;SDS011;23311;48.776;9.162;2024-03-07T07:05:34;36.97;;;29.03;;
291;SDS011;23311;48.776;9.162;2024-03-07T07:08:03;38.07;;;29.80;;
291;SDS011;23311;48.776;9.162;2024-03-07T07:10:34;37.33;;;28.53;;
291;SDS011;23311;48.776;9.162;2024-03-07T07:13:03;39.30;;;29.57;;
291;SDS011;23311;48.776;9.162;2024-03-07T07:15:32;39.53;;;26.60;;
291;SDS011;23311;48.776;9.162;2024-03-07T07:18:03;39.00;;;28.30;;
291;SDS011;23311;48.776;9.162;2024-03-07T07:20:34;33.63;;;25.00;;
291;SDS011;23311;48.776;9.162;2024-03-07T07:23:02;35.10;;;26.77;;
291;SDS011;23311;48.776;9.162;2024-03-07T07:25:31;33.30;;;26.53;;
291;SDS011;23311;48.776;9.162;2024-03-07T07:28:01;32.67;;;25.40;;
291;SDS011;23311;48.776;9.162;2024-03-07T07:30:31;32.90;;;25.43;;
291;SDS011;23311;48.776;9.162;2024-03-07T07:32:59;32.10;;;25.77;;
291;SDS011;23311;48.776;9.162;2024-03-07T07:35:28;33.93;;;25.00;;
291;SDS011;23311;48.776;9.162;2024-03-07T07:37:56;34.17;;;25.57;;
291;SDS011;23311;48.776;9.162;2024-03-07T07:40:24;32.13;;;24.77;;
291;SDS011;23311;48.776;9.162;2024-03-07T07:42:54;31.63;;;24.67;;
291;SDS011;23311;48.776;9.162;2024-03-07T07:45:24;30.80;;;23.77;;
291;SDS011;23311;48.776;9.162;2024-03-07T07:47:53;31.67;;;24.47;;
291;SDS011;23311;48.776;9.162;2024-03-07T07:50:23;30.03;;;22.73;;
291;SDS011;23311;48.776;9.162;2024-03-07T07:52:52;28.80;;;23.93;;
291;SDS011;23311;48.776;9.162;2024-03-07T07:55:22;31.80;;;23.60;;
291;SDS011;23311;48.776;9.162;2024-03-07T07:57:52;31.00;;;24.63;;
291;SDS011;23311;48.776;9.162;2024-03-07T08:00:22;30.00;;;24.93;;
291;SDS011;23311;48.776;9.162;2024-03-07T08:02:56;29.97;;;22.47;;
291;SDS011;23311;48.776;9.162;2024-03-07T08:05:26;29.87;;;22.63;;
291;SDS011;23311;48.776;9.162;2024-03-07T08:07:55;28.40;;;21.70;;
291;SDS011;23311;48.776;9.162;2024-03-07T08:10:25;35.97;;;24.60;;
291;SDS011;23311;48.776;9.162;2024-03-07T08:12:56;28.07;;;22.83;;
291;SDS011;23311;48.776;9.162;2024-03-07T08:15:27;33.10;;;24.27;;
291;SDS011;23311;48.776;9.162;2024-03-07T08:17:55;31.53;;;23.80;;
291;SDS011;23311;48.776;9.162;2024-03-07T08:20:25;27.90;;;21.70;;
291;SDS011;23311;48.776;9.162;2024-03-07T08:22:54;29.17;;;23.37;;
291;SDS011;23311;48.776;9.162;2024-03-07T08:25:24;26.67;;;21.80;;
291;SDS011;23311;48.776;9.162;2024-03-07T08:27:54;26.27;;;21.10;;
291;SDS011;23311;48.776;9.162;2024-03-07T08:30:26;30.23;;;22.40;;
291;SDS011;23311;48.776;9.162;2024-03-07T08:32:56;27.00;;;21.77;;
291;SDS011;23311;48.776;9.162;2024-03-07T08:35:25;27.07;;;21.23;;
291;SDS011;23311;48.776;9.162;2024-03-07T08:37:56;23.87;;;20.27;;
291;SDS011;23311;48.776;9.162;2024-03-07T08:40:25;21.63;;;19.37;;
291;SDS011;23311;48.776;9.162;2024-03-07T08:42:58;25.10;;;18.47;;
291;SDS011;23311;48.776;9.162;2024-03-07T08:45:28;25.07;;;20.50;;
291;SDS011;23311;48.776;9.162;2024-03-07T08:48:01;24.67;;;19.73;;
291;SDS011;23311;48.776;9.162;2024-03-07T08:50:32;24.50;;;20.40;;
291;SDS011;23311;48.776;9.162;2024-03-07T08:53:01;27.20;;;20.70;;
291;SDS011;23311;48.776;9.162;2024-03-07T08:55:30;25.13;;;20.00;;
291;SDS011;23311;48.776;9.162;2024-03-07T08:57:59;27.83;;;20.40;;
291;SDS011;23311;48.776;9.162;2024-03-07T09:00:28;25.87;;;19.70;;
291;SDS011;23311;48.776;9.162;2024-03-07T09:03:01;23.30;;;18.50;;
291;SDS011;23311;48.776;9.162;2024-03-07T09:05:30;23.23;;;19.00;;
291;SDS011;23311;48.776;9.162;2024-03-07T09:08:00;24.83;;;18.40;;
291;SDS011;23311;48.776;9.162;2024-03-07T09:10:30;23.20;;;19.30;;
291;SDS011;23311;48.776;9.162;2024-03-07T09:12:58;24.30;;;20.43;;
291;SDS011;23311;48.776;9.162;2024-03-07T09:15:28;24.17;;;19.50;;
291;SDS011;23311;48.776;9.162;2024-03-07T09:17:56;23.87;;;19.10;;
291;SDS011;23311;48.776;9.162;2024-03-07T09:20:25;28.27;;;18.67;;
291;SDS011;23311;48.776;9.162;2024-03-07T09:22:54;23.83;;;20.37;;
291;SDS011;23311;48.776;9.162;2024-03-07T09:25:22;24.93;;;19.90;;
291;SDS011;23311;48.776;9.162;2024-03-07T09:27:52;25.43;;;18.80;;
291;SDS011;23311;48.776;9.162;2024-03-07T09:30:22;25.30;;;20.17;;
291;SDS011;23311;48.776;9.162;2024-03-07T09:32:55;25.17;;;18.37;;
291;SDS011;23311;48.776;9.162;2024-03-07T09:35:23;23.70;;;18.70;;
291;SDS011;23311;48.776;9.162;2024-03-07T09:37:52;24.60;;;18.07;;
291;SDS011;23311;48.776;9.162;2024-03-07T09:40:22;31.17;;;19.90;;
291;SDS011;23311;48.776;9.162;2024-03-07T09:42:53;26.27;;;19.93;;
291;SDS011;23311;48.776;9.162;2024-03-07T09:45:28;24.37;;;19.53;;
291;SDS011;23311;48.776;9.162;2024-03-07T09:47:59;29.10;;;21.77;;
291;SDS011;23311;48.776;9.162;2024-03-07T09:50:29;23.80;;;20.33;;
291;SDS011;23311;48.776;9.162;2024-03-07T09:52:58;25.23;;;19.43;;
291;SDS011;23311;48.776;9.162;2024-03-07T09:55:27;27.10;;;21.03;;
291;SDS011;23311;48.776;9.162;2024-03-07T09:57:56;23.83;;;19.20;;
291;SDS011;23311;48.776;9.162;2024-03-07T10:00:28;30.83;;;20.57;;
291;SDS011;23311;48.776;9.162;2024-03-07T10:02:58;26.87;;;19.80;;
291;SDS011;23311;48.776;9.162;2024-03-07T10:05:30;34.03;;;23.10;;
291;SDS011;23311;48.776;9.162;2024-03-07T10:07:59;26.17;;;20.20;;
291;SDS011;23311;48.776;9.162;2024-03-07T10:10:29;25.50;;;19.13;;
291;SDS011;23311;48.776;9.162;2024-03-07T10:12:58;24.40;;;18.53;;
291;SDS011;23311;48.776;9.162;2024-03-07T10:15:28;29.67;;;19.37;;
291;SDS011;23311;48.776;9.162;2024-03-07T10:17:57;23.73;;;19.17;;
291;SDS011;23311;48.776;9.162;2024-03-07T10:20:29;26.67;;;19.47;;
291;SDS011;23311;48.776;9.162;2024-03-07T10:22:57;23.73;;;17.73;;
291;SDS011;23311;48.776;9.162;2024-03-07T10:25:27;24.87;;;18.80;;
291;SDS011;23311;48.776;9.162;2024-03-07T10:27:56;24.80;;;18.97;;
291;SDS011;23311;48.776;9.162;2024-03-07T10:30:26;27.30;;;18.47;;
291;SDS011;23311;48.776;9.162;2024-03-07T10:32:55;25.33;;;18.70;;
291;SDS011;23311;48.776;9.162;2024-03-07T10:35:26;27.87;;;18.93;;
291;SDS011;23311;48.776;9.162;2024-03-07T10:37:58;27.57;;;20.20;;
291;SDS011;23311;48.776;9.162;2024-03-07T10:40:33;24.53;;;18.90;;
291;SDS011;23311;48.776;9.162;2024-03-07T10:43:05;28.60;;;18.23;;
291;SDS011;23311;48.776;9.162;2024-03-07T10:45:37;27.23;;;19.73;;
291;SDS011;23311;48.776;9.162;2024-03-07T10:48:12;23.57;;;18.43;;
291;SDS011;23311;48.776;9.162;2024-03-07T10:50:47;25.50;;;18.60;;
291;SDS011;23311;48.776;9.162;2024-03-07T10:53:32;26.73;;;19.60;;
291;SDS011;23311;48.776;9.162;2024-03-07T10:56:18;30.60;;;20.20;;
291;SDS011;23311;48.776;9.162;2024-03-07T10:58:57;29.80;;;20.70;;
291;SDS011;23311;48.776;9.162;2024-03-07T11:01:31;26.53;;;20.37;;
291;SDS011;23311;48.776;9.162;2024-03-07T11:04:01;27.07;;;19.07;;
291;SDS011;23311;48.776;9.162;2024-03-07T11:06:32;30.07;;;20.80;;
291;SDS011;23311;48.776;9.162;2024-03-07T11:09:04;29.37;;;20.97;;
291;SDS011;23311;48.776;9.162;2024-03-07T11:11:37;29.07;;;20.83;;
291;SDS011;23311;48.776;9.162;2024-03-07T11:14:08;32.70;;;21.10;;
291;SDS011;23311;48.776;9.162;2024-03-07T11:16:38;27.90;;;20.10;;
291;SDS011;23311;48.776;9.162;2024-03-07T11:19:18;26.50;;;20.10;;
291;SDS011;23311;48.776;9.162;2024-03-07T11:21:54;26.13;;;20.17;;
291;SDS011;23311;48.776;9.162;2024-03-07T11:24:25;30.00;;;19.50;;
291;SDS011;23311;48.776;9.162;2024-03-07T11:26:55;27.93;;;20.30;;
291;SDS011;23311;48.776;9.162;2024-03-07T11:29:40;26.10;;;20.10;;
291;SDS011;23311;48.776;9.162;2024-03-07T11:32:10;26.10;;;19.63;;
291;SDS011;23311;48.776;9.162;2024-03-07T11:34:41;28.63;;;20.67;;
291;SDS011;23311;48.776;9.162;2024-03-07T11:37:16;25.37;;;20.27;;
291;SDS011;23311;48.776;9.162;2024-03-07T11:39:51;31.80;;;21.10;;
291;SDS011;23311;48.776;9.162;2024-03-07T11:42:22;28.37;;;20.67;;
291;SDS011;23311;48.776;9.162;2024-03-07T11:44:53;27.67;;;20.53;;
291;SDS011;23311;48.776;9.162;2024-03-07T11:47:24;28.10;;;21.07;;
291;SDS011;23311;48.776;9.162;2024-03-07T11:49:56;30.70;;;21.60;;
291;SDS011;23311;48.776;9.162;2024-03-07T11:52:25;28.80;;;20.43;;
291;SDS011;23311;48.776;9.162;2024-03-07T11:54:56;31.93;;;21.00;;
291;SDS011;23311;48.776;9.162;2024-03-07T11:57:31;31.77;;;22.27;;
291;SDS011;23311;48.776;9.162;2024-03-07T12:00:00;25.40;;;20.00;;
291;SDS011;23311;48.776;9.162;2024-03-07T12:02:36;27.93;;;19.67;;
291;SDS011;23311;48.776;9.162;2024-03-07T12:05:06;27.93;;;19.37;;
291;SDS011;23311;48.776;9.162;2024-03-07T12:07:35;30.30;;;20.60;;
291;SDS011;23311;48.776;9.162;2024-03-07T12:10:06;27.33;;;18.67;;
291;SDS011;23311;48.776;9.162;2024-03-07T12:12:35;26.77;;;21.30;;
291;SDS011;23311;48.776;9.162;2024-03-07T12:15:06;28.60;;;21.67;;
291;SDS011;23311;48.776;9.162;2024-03-07T12:17:41;27.87;;;19.77;;
291;SDS011;23311;48.776;9.162;2024-03-07T12:20:11;29.20;;;21.10;;
291;SDS011;23311;48.776;9.162;2024-03-07T12:22:57;30.80;;;21.10;;
291;SDS011;23311;48.776;9.162;2024-03-07T12:25:29;30.53;;;19.70;;
291;SDS011;23311;48.776;9.162;2024-03-07T12:28:03;29.07;;;21.20;;
291;SDS011;23311;48.776;9.162;2024-03-07T12:30:47;28.53;;;20.37;;
291;SDS011;23311;48.776;9.162;2024-03-07T12:33:18;28.67;;;22.37;;
291;SDS011;23311;48.776;9.162;2024-03-07T12:35:47;25.40;;;20.50;;
291;SDS011;23311;48.776;9.162;2024-03-07T12:38:16;29.93;;;22.13;;
291;SDS011;23311;48.776;9.162;2024-03-07T12:40:47;29.00;;;20.87;;
291;SDS011;23311;48.776;9.162;2024-03-07T12:43:32;33.97;;;21.57;;
291;SDS011;23311;48.776;9.162;2024-03-07T12:46:00;26.93;;;21.40;;
291;SDS011;23311;48.776;9.162;2024-03-07T12:48:31;29.50;;;23.30;;
291;SDS011;23311;48.776;9.162;2024-03-07T12:51:00;31.23;;;23.13;;
291;SDS011;23311;48.776;9.162;2024-03-07T12:53:29;32.33;;;22.17;;
291;SDS011;23311;48.776;9.162;2024-03-07T12:55:59;31.63;;;22.27;;
291;SDS011;23311;48.776;9.162;2024-03-07T12:58:29;30.60;;;22.83;;
291;SDS011;23311;48.776;9.162;2024-03-07T13:00:59;30.20;;;21.40;;
291;SDS011;23311;48.776;9.162;2024-03-07T13:03:27;31.60;;;21.43;;
291;SDS011;23311;48.776;9.162;2024-03-07T13:05:58;25.50;;;20.00;;
291;SDS011;23311;48.776;9.162;2024-03-07T13:08:28;28.83;;;20.50;;
291;SDS011;23311;48.776;9.162;2024-03-07T13:10:57;27.17;;;20.97;;
291;SDS011;23311;48.776;9.162;2024-03-07T13:13:28;28.90;;;21.77;;
291;SDS011;23311;48.776;9.162;2024-03-07T13:15:57;27.90;;;20.13;;
291;SDS011;23311;48.776;9.162;2024-03-07T13:18:26;26.10;;;21.47;;
291;SDS011;23311;48.776;9.162;2024-03-07T13:20:55;27.97;;;20.90;;
291;SDS011;23311;48.776;9.162;2024-03-07T13:23:23;29.07;;;20.00;;
291;SDS011;23311;48.776;9.162;2024-03-07T13:25:54;29.00;;;21.93;;
291;SDS011;23311;48.776;9.162;2024-03-07T13:28:25;26.23;;;20.57;;
291;SDS011;23311;48.776;9.162;2024-03-07T13:30:55;25.00;;;20.80;;
291;SDS011;23311;48.776;9.162;2024-03-07T13:33:24;31.70;;;21.83;;
291;SDS011;23311;48.776;9.162;2024-03-07T13:35:54;28.57;;;21.70;;
291;SDS011;23311;48.776;9.162;2024-03-07T13:38:23;27.00;;;21.57;;
291;SDS011;23311;48.776;9.162;2024-03-07T13:40:53;28.73;;;22.47;;
291;SDS011;23311;48.776;9.162;2024-03-07T13:43:21;29.83;;;21.67;;
291;SDS011;23311;48.776;9.162;2024-03-07T13:45:50;26.90;;;21.30;;
291;SDS011;23311;48.776;9.162;2024-03-07T13:48:18;29.07;;;22.27;;
291;SDS011;23311;48.776;9.162;2024-03-07T13:50:48;30.43;;;21.77;;
291;SDS011;23311;48.776;9.162;2024-03-07T13:53:26;27.80;;;22.17;;
291;SDS011;23311;48.776;9.162;2024-03-07T13:56:04;31.40;;;22.10;;
291;SDS011;23311;48.776;9.162;2024-03-07T13:59:04;26.00;;;20.00;;
291;SDS011;23311;48.776;9.162;2024-03-07T14:01:52;25.70;;;20.10;;
291;SDS011;23311;48.776;9.162;2024-03-07T14:04:39;26.33;;;18.80;;
291;SDS011;23311;48.776;9.162;2024-03-07T14:07:33;28.73;;;21.30;;
291;SDS011;23311;48.776;9.162;2024-03-07T14:13:34;26.67;;;21.57;;
291;SDS011;23311;48.776;9.162;2024-03-07T14:16:37;30.73;;;22.60;;
291;SDS011;23311;48.776;9.162;2024-03-07T14:19:45;27.83;;;22.30;;
291;SDS011;23311;48.776;9.162;2024-03-07T14:22:58;26.90;;;21.70;;
291;SDS011;23311;48.776;9.162;2024-03-07T14:25:46;31.87;;;22.30;;
291;SDS011;23311;48.776;9.162;2024-03-07T14:28:40;27.33;;;21.67;;
291;SDS011;23311;48.776;9.162;2024-03-07T14:31:19;28.10;;;22.27;;
291;SDS011;23311;48.776;9.162;2024-03-07T14:33:54;30.13;;;24.07;;
291;SDS011;23311;48.776;9.162;2024-03-07T14:36:32;29.00;;;21.70;;
291;SDS011;23311;48.776;9.162;2024-03-07T14:39:05;32.80;;;23.13;;
291;SDS011;23311;48.776;9.162;2024-03-07T14:41:43;29.47;;;21.47;;
291;SDS011;23311;48.776;9.162;2024-03-07T14:44:16;29.10;;;20.50;;
291;SDS011;23311;48.776;9.162;2024-03-07T14:46:46;30.33;;;21.87;;
291;SDS011;23311;48.776;9.162;2024-03-07T14:49:20;29.93;;;21.77;;
291;SDS011;23311;48.776;9.162;2024-03-07T14:51:50;29.63;;;22.57;;
291;SDS011;23311;48.776;9.162;2024-03-07T14:54:26;33.93;;;23.50;;
291;SDS011;23311;48.776;9.162;2024-03-07T14:56:55;28.33;;;20.83;;
291;SDS011;23311;48.776;9.162;2024-03-07T14:59:24;30.20;;;22.47;;
291;SDS011;23311;48.776;9.162;2024-03-07T15:01:52;28.67;;;21.03;;
291;SDS011;23311;48.776;9.162;2024-03-07T15:04:23;31.60;;;22.90;;
291;SDS011;23311;48.776;9.162;2024-03-07T15:06:53;28.63;;;20.87;;
291;SDS011;23311;48.776;9.162;2024-03-07T15:09:23;30.40;;;22.57;;
291;SDS011;23311;48.776;9.162;2024-03-07T15:11:56;33.13;;;21.33;;